createdAt,value
2023-04-18T00:00:47.879Z,15.0864
2023-04-18T00:01:50.205Z,15.0827
2023-04-18T00:02:50.849Z,15.0613
2023-04-18T00:03:52.283Z,15.0293
2023-04-18T00:04:53.723Z,14.9919
2023-04-18T00:05:54.936Z,14.9626
2023-04-18T00:06:56.430Z,14.9536
2023-04-18T00:07:57.795Z,14.9688
2023-04-18T00:08:59.335Z,14.9887
2023-04-18T00:10:00.711Z,15.0132
2023-04-18T00:11:02.164Z,15.0128
2023-04-18T00:12:03.510Z,15.0070
2023-04-18T00:13:05.013Z,15.0490
2023-04-18T00:14:07.169Z,15.0627
2023-04-18T00:15:07.915Z,15.0812
2023-04-18T00:16:09.299Z,15.0938
2023-04-18T00:17:10.849Z,15.0836
2023-04-18T00:18:12.115Z,15.0861
2023-04-18T00:19:13.519Z,15.0804
2023-04-18T00:20:14.959Z,15.0790
2023-04-18T00:21:16.410Z,15.0885
2023-04-18T00:22:17.741Z,15.0745
2023-04-18T00:23:19.241Z,15.0813
2023-04-18T00:24:20.556Z,15.0768
2023-04-18T00:25:21.992Z,15.0465
2023-04-18T00:26:23.622Z,15.0500
2023-04-18T00:27:24.927Z,15.0741
2023-04-18T00:28:26.341Z,15.1004
2023-04-18T00:29:27.829Z,15.0696
2023-04-18T00:30:29.237Z,15.0418
2023-04-18T00:31:30.698Z,15.0266
2023-04-18T00:32:31.999Z,15.0249
2023-04-18T00:33:33.495Z,15.0258
2023-04-18T00:34:34.844Z,15.0541
2023-04-18T00:35:36.789Z,15.0576
2023-04-18T00:36:37.812Z,15.0630
2023-04-18T00:37:39.157Z,15.0696
2023-04-18T00:38:40.543Z,15.0766
2023-04-18T00:39:42.086Z,15.0789
2023-04-18T00:40:43.455Z,15.0909
2023-04-18T00:41:44.916Z,15.1076
2023-04-18T00:42:46.252Z,15.1118
2023-04-18T00:43:47.719Z,15.0903
2023-04-18T00:44:49.098Z,15.0661
2023-04-18T00:45:50.616Z,15.0504
2023-04-18T00:46:52.017Z,15.0417
2023-04-18T00:47:53.462Z,15.0463
2023-04-18T00:48:54.815Z,15.0547
2023-04-18T00:49:56.288Z,15.0557
2023-04-18T00:50:57.762Z,15.0594
2023-04-18T00:51:59.211Z,15.0758
2023-04-18T00:53:00.555Z,15.0927
2023-04-18T00:54:01.979Z,15.0950
2023-04-18T00:55:03.364Z,15.1014
2023-04-18T00:56:05.276Z,15.1227
2023-04-18T00:57:06.276Z,15.1273
2023-04-18T00:58:07.673Z,15.1508
2023-04-18T00:59:09.151Z,15.1133
2023-04-18T01:00:10.527Z,15.0736
2023-04-18T01:01:12.044Z,15.0462
2023-04-18T01:02:13.452Z,15.0370
2023-04-18T01:03:14.959Z,15.0502
2023-04-18T01:04:17.345Z,15.0746
2023-04-18T01:05:17.656Z,15.1018
2023-04-18T01:06:19.232Z,15.0935
2023-04-18T01:07:20.516Z,15.0967
2023-04-18T01:08:21.909Z,15.1189
2023-04-18T01:09:23.359Z,15.1146
2023-04-18T01:10:24.776Z,15.1002
2023-04-18T01:11:26.289Z,15.1155
2023-04-18T01:12:27.678Z,15.1079
2023-04-18T01:13:29.100Z,15.1006
2023-04-18T01:14:30.481Z,15.0959
2023-04-18T01:15:31.991Z,15.0930
2023-04-18T01:16:33.397Z,15.0893
2023-04-18T01:17:34.873Z,15.0836
2023-04-18T01:18:36.273Z,15.0889
2023-04-18T01:19:37.646Z,15.0814
2023-04-18T01:20:39.007Z,15.0726
2023-04-18T01:21:40.557Z,15.0352
2023-04-18T01:22:41.885Z,15.0062
2023-04-18T01:23:43.331Z,14.9982
2023-04-18T01:24:44.763Z,15.0010
2023-04-18T01:25:46.202Z,15.0155
2023-04-18T01:26:47.700Z,15.0223
2023-04-18T01:27:49.164Z,15.0380
2023-04-18T01:28:50.491Z,15.0432
2023-04-18T01:29:51.991Z,15.0437
2023-04-18T01:30:53.370Z,15.0749
2023-04-18T01:31:55.034Z,15.0817
2023-04-18T01:32:56.393Z,15.0881
2023-04-18T01:33:57.844Z,15.0978
2023-04-18T01:34:59.206Z,15.0988
2023-04-18T01:36:00.615Z,15.0923
2023-04-18T01:37:02.162Z,15.0937
2023-04-18T01:38:03.575Z,15.0696
2023-04-18T01:39:04.893Z,15.0351
2023-04-18T01:40:06.349Z,14.9956
2023-04-18T01:41:07.758Z,14.9956
2023-04-18T01:42:09.300Z,15.0201
2023-04-18T01:43:10.643Z,15.0236
2023-04-18T01:44:12.296Z,15.0504
2023-04-18T01:45:13.468Z,15.0658
2023-04-18T01:46:15.019Z,15.0537
2023-04-18T01:47:16.423Z,15.0655
2023-04-18T01:48:17.919Z,15.0691
2023-04-18T01:49:19.216Z,15.0981
2023-04-18T01:50:20.696Z,15.0999
2023-04-18T01:51:22.072Z,15.1202
2023-04-18T01:52:23.633Z,15.1386
2023-04-18T01:53:24.977Z,15.1305
2023-04-18T01:54:26.405Z,15.1109
2023-04-18T01:55:27.794Z,15.1140
2023-04-18T01:56:29.398Z,15.1119
2023-04-18T01:57:30.764Z,15.0995
2023-04-18T01:58:32.159Z,15.0937
2023-04-18T01:59:33.489Z,15.1070
2023-04-18T02:00:35.012Z,15.1230
2023-04-18T02:01:36.433Z,15.1351
2023-04-18T02:02:38.052Z,15.1351
2023-04-18T02:03:39.514Z,15.1253
2023-04-18T02:04:40.727Z,15.0986
2023-04-18T02:05:42.108Z,15.0636
2023-04-18T02:06:43.607Z,15.0444
2023-04-18T02:07:44.994Z,15.0449
2023-04-18T02:08:46.519Z,15.0361
2023-04-18T02:09:47.775Z,15.0469
2023-04-18T02:10:49.261Z,15.0488
2023-04-18T02:11:50.654Z,15.0492
2023-04-18T02:12:52.155Z,15.0542
2023-04-18T02:13:53.597Z,15.0590
2023-04-18T02:14:54.999Z,15.0718
2023-04-18T02:15:56.382Z,15.1045
2023-04-18T02:16:57.950Z,15.1304
2023-04-18T02:17:59.378Z,15.1321
2023-04-18T02:19:00.727Z,15.1330
2023-04-18T02:20:02.161Z,15.1319
2023-04-18T02:21:03.591Z,15.1332
2023-04-18T02:22:04.962Z,15.1149
2023-04-18T02:23:06.451Z,15.1167
2023-04-18T02:24:07.904Z,15.1202
2023-04-18T02:25:09.293Z,15.1330
2023-04-18T02:26:10.693Z,15.1354
2023-04-18T02:27:12.136Z,15.1309
2023-04-18T02:28:13.597Z,15.1420
2023-04-18T02:29:15.036Z,15.1374
2023-04-18T02:30:16.447Z,15.1573
2023-04-18T02:31:17.842Z,15.1577
2023-04-18T02:32:19.279Z,15.1586
2023-04-18T02:33:20.802Z,15.1645
2023-04-18T02:34:22.216Z,15.1535
2023-04-18T02:35:23.641Z,15.1571
2023-04-18T02:36:25.049Z,15.1572
2023-04-18T02:37:26.522Z,15.1528
2023-04-18T02:38:28.301Z,15.1422
2023-04-18T02:39:29.332Z,15.1351
2023-04-18T02:40:30.766Z,15.1197
2023-04-18T02:41:32.199Z,15.0905
2023-04-18T02:42:33.714Z,15.0454
2023-04-18T02:43:35.080Z,15.0069
2023-04-18T02:44:36.762Z,14.9785
2023-04-18T02:45:37.927Z,14.9735
2023-04-18T02:46:39.305Z,14.9807
2023-04-18T02:47:51.127Z,14.9957
2023-04-18T02:48:42.322Z,15.0147
2023-04-18T02:49:43.664Z,15.0477
2023-04-18T02:50:44.992Z,15.0660
2023-04-18T02:51:46.487Z,15.0658
2023-04-18T02:52:47.927Z,15.0549
2023-04-18T02:53:49.394Z,15.0845
2023-04-18T02:54:50.834Z,15.3710
2023-04-18T02:55:52.217Z,15.8644
2023-04-18T02:56:53.649Z,16.4525
2023-04-18T02:57:55.088Z,17.2858
2023-04-18T02:58:56.525Z,17.6103
2023-04-18T02:59:58.010Z,17.6609
2023-04-18T03:00:59.340Z,17.6396
2023-04-18T03:02:00.909Z,17.5603
2023-04-18T03:03:02.344Z,17.5182
2023-04-18T03:04:03.744Z,17.4560
2023-04-18T03:05:05.211Z,17.4067
2023-04-18T03:06:06.564Z,17.4283
2023-04-18T03:07:08.728Z,17.4735
2023-04-18T03:08:09.349Z,17.5152
2023-04-18T03:09:10.838Z,17.5640
2023-04-18T03:10:12.344Z,17.5249
2023-04-18T03:11:13.676Z,17.4514
2023-04-18T03:12:15.046Z,17.3896
2023-04-18T03:13:16.538Z,17.3540
2023-04-18T03:14:17.958Z,17.4190
2023-04-18T03:15:19.403Z,17.5231
2023-04-18T03:16:20.958Z,17.5711
2023-04-18T03:17:22.256Z,17.5373
2023-04-18T03:18:23.605Z,17.4504
2023-04-18T03:19:25.130Z,17.4268
2023-04-18T03:20:26.563Z,17.4354
2023-04-18T03:21:27.964Z,17.4794
2023-04-18T03:22:29.322Z,17.4610
2023-04-18T03:23:30.790Z,17.4162
2023-04-18T03:24:32.293Z,17.3966
2023-04-18T03:25:33.794Z,17.3874
2023-04-18T03:26:35.107Z,17.4716
2023-04-18T03:27:36.510Z,17.5983
2023-04-18T03:28:37.934Z,17.6232
2023-04-18T03:29:39.405Z,17.5770
2023-04-18T03:30:40.802Z,17.5178
2023-04-18T03:31:42.277Z,17.4618
2023-04-18T03:32:43.715Z,17.5002
2023-04-18T03:33:45.083Z,17.6221
2023-04-18T03:34:46.549Z,17.7718
2023-04-18T03:35:48.116Z,17.7699
2023-04-18T03:36:49.354Z,17.7424
2023-04-18T03:37:50.829Z,17.6737
2023-04-18T03:38:52.232Z,17.5886
2023-04-18T03:39:53.725Z,17.5554
2023-04-18T03:40:55.124Z,17.5016
2023-04-18T03:41:56.540Z,17.4013
2023-04-18T03:42:57.927Z,17.3445
2023-04-18T03:43:59.438Z,17.4248
2023-04-18T03:45:01.252Z,17.5662
2023-04-18T03:46:02.373Z,17.6536
2023-04-18T03:47:03.647Z,17.6549
2023-04-18T03:48:05.088Z,17.6259
2023-04-18T03:49:06.429Z,17.5727
2023-04-18T03:50:07.959Z,17.5283
2023-04-18T03:51:09.344Z,17.4883
2023-04-18T03:52:10.787Z,17.5135
2023-04-18T03:53:12.195Z,17.5516
2023-04-18T03:54:13.886Z,17.5674
2023-04-18T03:55:15.376Z,17.5481
2023-04-18T03:56:16.574Z,17.5195
2023-04-18T03:57:17.875Z,17.5293
2023-04-18T03:58:19.313Z,17.5836
2023-04-18T03:59:20.752Z,17.6935
2023-04-18T04:00:22.402Z,17.7279
2023-04-18T04:01:23.682Z,17.7269
2023-04-18T04:02:25.237Z,17.6956
2023-04-18T04:03:26.541Z,17.6362
2023-04-18T04:04:28.016Z,17.5459
2023-04-18T04:05:29.453Z,17.4836
2023-04-18T04:06:30.857Z,17.4597
2023-04-18T04:07:32.244Z,17.5047
2023-04-18T04:08:33.697Z,17.5410
2023-04-18T04:09:35.153Z,17.5680
2023-04-18T04:10:36.547Z,17.6187
2023-04-18T04:11:38.020Z,17.6511
2023-04-18T04:12:39.447Z,17.6505
2023-04-18T04:13:40.818Z,17.5958
2023-04-18T04:14:42.244Z,17.5690
2023-04-18T04:15:43.766Z,17.5618
2023-04-18T04:16:45.259Z,17.5467
2023-04-18T04:17:46.642Z,17.5915
2023-04-18T04:18:47.979Z,17.6318
2023-04-18T04:19:49.416Z,17.5922
2023-04-18T04:20:50.820Z,17.5821
2023-04-18T04:21:52.285Z,17.5840
2023-04-18T04:22:53.682Z,17.5555
2023-04-18T04:23:55.104Z,17.5568
2023-04-18T04:24:56.494Z,17.5907
2023-04-18T04:25:58.094Z,17.6781
2023-04-18T04:26:59.450Z,17.6892
2023-04-18T04:28:00.865Z,17.6944
2023-04-18T04:29:02.227Z,17.6653
2023-04-18T04:30:03.761Z,17.5693
2023-04-18T04:31:05.140Z,17.4917
2023-04-18T04:32:06.746Z,17.4738
2023-04-18T04:33:07.961Z,17.4878
2023-04-18T04:34:09.395Z,17.4572
2023-04-18T04:35:10.762Z,17.4496
2023-04-18T04:36:12.305Z,17.4131
2023-04-18T04:37:13.748Z,17.3637
2023-04-18T04:38:15.196Z,17.3573
2023-04-18T04:39:16.567Z,17.4142
2023-04-18T04:40:17.973Z,17.4848
2023-04-18T04:41:19.410Z,17.5267
2023-04-18T04:42:20.934Z,17.5026
2023-04-18T04:43:22.280Z,17.4461
2023-04-18T04:44:23.744Z,17.4070
2023-04-18T04:45:25.052Z,17.3966
2023-04-18T04:46:26.576Z,17.4162
2023-04-18T04:47:28.094Z,17.4352
2023-04-18T04:48:29.446Z,17.4535
2023-04-18T04:49:30.846Z,17.4424
2023-04-18T04:50:32.307Z,17.4021
2023-04-18T04:51:33.720Z,17.3907
2023-04-18T04:52:35.131Z,17.4168
2023-04-18T04:53:36.575Z,17.4636
2023-04-18T04:54:38.045Z,17.6169
2023-04-18T04:55:39.382Z,17.8565
2023-04-18T04:56:40.903Z,18.1847
2023-04-18T04:57:42.370Z,18.5243
2023-04-18T04:58:43.800Z,18.7729
2023-04-18T04:59:45.145Z,18.9737
2023-04-18T05:00:46.610Z,19.1592
2023-04-18T05:01:48.068Z,19.3940
2023-04-18T05:02:49.617Z,19.5450
2023-04-18T05:03:51.512Z,19.7264
2023-04-18T05:04:52.359Z,19.8821
2023-04-18T05:05:53.739Z,20.0268
2023-04-18T05:06:55.168Z,20.2784
2023-04-18T05:07:56.612Z,20.5457
2023-04-18T05:08:58.068Z,20.6449
2023-04-18T05:09:59.582Z,20.6994
2023-04-18T05:11:00.835Z,20.5916
2023-04-18T05:12:02.328Z,20.4938
2023-04-18T05:13:03.717Z,20.5255
2023-04-18T05:14:05.286Z,20.5266
2023-04-18T05:15:06.623Z,20.5326
2023-04-18T05:16:08.044Z,20.7828
2023-04-18T05:17:09.512Z,21.0392
2023-04-18T05:18:10.914Z,21.1069
2023-04-18T05:19:12.405Z,21.0285
2023-04-18T05:20:13.870Z,20.9300
2023-04-18T05:21:15.249Z,20.9167
2023-04-18T05:22:16.666Z,21.1387
2023-04-18T05:23:18.101Z,21.4048
2023-04-18T05:24:19.496Z,21.5062
2023-04-18T05:25:20.968Z,21.3400
2023-04-18T05:26:22.404Z,21.2348
2023-04-18T05:27:23.799Z,21.4490
2023-04-18T05:28:25.152Z,21.7430
2023-04-18T05:29:26.611Z,21.7802
2023-04-18T05:30:28.047Z,21.5772
2023-04-18T05:31:29.587Z,21.3078
2023-04-18T05:32:30.969Z,21.3027
2023-04-18T05:33:32.399Z,21.6611
2023-04-18T05:34:33.973Z,21.9264
2023-04-18T05:35:35.314Z,21.8782
2023-04-18T05:36:36.722Z,21.6295
2023-04-18T05:37:38.139Z,21.3095
2023-04-18T05:38:39.630Z,21.4599
2023-04-18T05:39:41.042Z,21.8862
2023-04-18T05:40:42.458Z,22.0352
2023-04-18T05:41:43.818Z,21.9132
2023-04-18T05:42:45.347Z,21.6692
2023-04-18T05:43:54.531Z,21.5020
2023-04-18T05:44:48.192Z,21.7673
2023-04-18T05:45:49.537Z,22.1100
2023-04-18T05:46:50.965Z,22.1400
2023-04-18T05:47:52.908Z,22.0010
2023-04-18T05:48:53.995Z,21.7109
2023-04-18T05:49:55.272Z,21.6442
2023-04-18T05:50:56.771Z,22.0101
2023-04-18T05:51:58.928Z,22.2850
2023-04-18T05:52:59.627Z,22.1792
2023-04-18T05:54:01.145Z,22.0337
2023-04-18T05:55:02.453Z,21.7071
2023-04-18T05:56:03.838Z,21.7702
2023-04-18T05:57:05.263Z,22.2293
2023-04-18T05:58:06.879Z,22.3763
2023-04-18T05:59:08.137Z,22.2134
2023-04-18T06:00:09.587Z,21.9220
2023-04-18T06:01:10.981Z,21.7263
2023-04-18T06:02:12.509Z,21.9300
2023-04-18T06:03:14.046Z,22.2856
2023-04-18T06:04:15.640Z,22.2286
2023-04-18T06:05:16.835Z,21.9403
2023-04-18T06:06:18.108Z,21.6794
2023-04-18T06:07:19.579Z,21.7062
2023-04-18T06:08:20.993Z,22.1260
2023-04-18T06:09:22.390Z,22.4026
2023-04-18T06:10:23.924Z,22.3292
2023-04-18T06:11:25.830Z,21.9899
2023-04-18T06:12:26.728Z,21.8500
2023-04-18T06:13:28.337Z,22.0948
2023-04-18T06:14:29.619Z,22.4062
2023-04-18T06:15:30.897Z,22.3897
2023-04-18T06:16:32.513Z,22.2008
2023-04-18T06:17:33.833Z,21.9145
2023-04-18T06:18:35.298Z,21.9832
2023-04-18T06:19:36.687Z,22.3840
2023-04-18T06:20:38.167Z,22.5276
2023-04-18T06:21:39.525Z,22.3791
2023-04-18T06:22:41.108Z,22.0211
2023-04-18T06:23:42.462Z,21.8794
2023-04-18T06:24:43.876Z,22.1526
2023-04-18T06:25:45.257Z,22.5430
2023-04-18T06:26:46.674Z,22.4523
2023-04-18T06:27:48.198Z,22.1083
2023-04-18T06:28:49.900Z,21.9080
2023-04-18T06:29:51.006Z,21.9629
2023-04-18T06:30:52.661Z,22.4127
2023-04-18T06:31:53.889Z,22.5387
2023-04-18T06:32:55.244Z,22.2973
2023-04-18T06:33:56.884Z,21.9579
2023-04-18T06:34:58.114Z,21.8327
2023-04-18T06:35:59.564Z,22.1874
2023-04-18T06:37:00.964Z,22.5542
2023-04-18T06:38:02.453Z,22.4829
2023-04-18T06:39:03.908Z,22.2644
2023-04-18T06:40:05.298Z,22.0644
2023-04-18T06:41:06.692Z,22.2340
2023-04-18T06:42:08.852Z,22.6294
2023-04-18T06:43:09.532Z,22.5898
2023-04-18T06:44:11.078Z,22.3565
2023-04-18T06:45:12.372Z,22.0528
2023-04-18T06:46:13.917Z,22.0235
2023-04-18T06:47:15.176Z,22.4970
2023-04-18T06:48:16.571Z,22.6997
2023-04-18T06:49:18.104Z,22.4869
2023-04-18T06:50:19.538Z,22.1370
2023-04-18T06:51:20.939Z,22.0028
2023-04-18T06:52:22.329Z,22.3011
2023-04-18T06:53:23.748Z,22.5896
2023-04-18T06:54:25.215Z,22.6026
2023-04-18T06:55:26.678Z,22.3032
2023-04-18T06:56:28.131Z,22.1939
2023-04-18T06:57:29.452Z,22.4060
2023-04-18T06:58:30.850Z,22.7586
2023-04-18T06:59:32.351Z,22.6924
2023-04-18T07:00:33.825Z,22.4099
2023-04-18T07:01:35.906Z,22.1590
2023-04-18T07:02:36.695Z,22.1945
2023-04-18T07:03:38.039Z,22.6457
2023-04-18T07:04:39.495Z,22.7965
2023-04-18T07:05:40.977Z,22.4770
2023-04-18T07:06:42.280Z,22.1686
2023-04-18T07:07:43.712Z,22.1811
2023-04-18T07:08:45.090Z,22.5701
2023-04-18T07:09:46.597Z,22.8253
2023-04-18T07:10:47.997Z,22.7054
2023-04-18T07:11:49.415Z,22.3580
2023-04-18T07:12:50.791Z,22.2466
2023-04-18T07:13:52.282Z,22.4892
2023-04-18T07:14:54.354Z,22.8719
2023-04-18T07:15:55.403Z,22.7890
2023-04-18T07:16:56.542Z,22.5431
2023-04-18T07:17:58.870Z,22.3666
2023-04-18T07:18:59.375Z,22.5902
2023-04-18T07:20:00.850Z,23.1064
2023-04-18T07:21:02.299Z,23.2129
2023-04-18T07:22:03.667Z,22.9745
2023-04-18T07:23:05.000Z,22.6785
2023-04-18T07:24:06.511Z,22.5209
2023-04-18T07:25:07.976Z,22.8139
2023-04-18T07:26:09.368Z,23.1322
2023-04-18T07:27:10.849Z,22.9538
2023-04-18T07:28:12.193Z,22.8472
2023-04-18T07:29:13.617Z,22.6981
2023-04-18T07:30:15.064Z,22.7950
2023-04-18T07:31:16.731Z,23.3102
2023-04-18T07:32:17.876Z,23.4368
2023-04-18T07:33:19.323Z,23.2179
2023-04-18T07:34:20.694Z,22.9643
2023-04-18T07:35:22.234Z,22.7772
2023-04-18T07:36:23.644Z,23.0345
2023-04-18T07:37:25.041Z,23.3713
2023-04-18T07:38:26.408Z,23.2820
2023-04-18T07:39:27.846Z,23.0196
2023-04-18T07:40:29.260Z,22.8247
2023-04-18T07:41:30.727Z,23.0402
2023-04-18T07:42:32.074Z,23.4566
2023-04-18T07:43:33.580Z,23.5040
2023-04-18T07:44:34.921Z,23.3103
2023-04-18T07:45:36.409Z,23.1100
2023-04-18T07:46:37.843Z,23.0610
2023-04-18T07:47:39.269Z,23.4501
2023-04-18T07:48:40.682Z,23.5576
2023-04-18T07:49:42.073Z,23.3171
2023-04-18T07:50:43.568Z,22.8275
2023-04-18T07:51:44.918Z,22.7776
2023-04-18T07:52:46.290Z,23.1677
2023-04-18T07:53:47.707Z,23.4360
2023-04-18T07:54:49.108Z,23.3486
2023-04-18T07:55:50.625Z,23.0302
2023-04-18T07:56:52.046Z,22.8678
2023-04-18T07:57:53.456Z,23.0854
2023-04-18T07:58:54.873Z,23.4159
2023-04-18T07:59:56.227Z,23.3582
2023-04-18T08:00:57.772Z,23.1199
2023-04-18T08:01:59.285Z,22.9292
2023-04-18T08:03:00.741Z,23.2297
2023-04-18T08:04:02.346Z,23.6484
2023-04-18T08:05:03.558Z,23.6121
2023-04-18T08:06:04.912Z,23.4919
2023-04-18T08:07:06.251Z,23.3784
2023-04-18T08:08:07.622Z,23.2372
2023-04-18T08:09:09.070Z,23.6789
2023-04-18T08:10:10.476Z,23.9892
2023-04-18T08:11:11.996Z,23.9273
2023-04-18T08:12:13.353Z,23.7175
2023-04-18T08:13:14.780Z,23.3886
2023-04-18T08:14:16.132Z,23.4842
2023-04-18T08:15:17.575Z,23.5556
2023-04-18T08:16:19.033Z,23.2446
2023-04-18T08:17:20.531Z,22.7518
2023-04-18T08:18:21.839Z,22.4212
2023-04-18T08:19:23.285Z,22.4252
2023-04-18T08:20:24.672Z,22.6916
2023-04-18T08:21:26.174Z,22.6786
2023-04-18T08:22:27.551Z,22.2941
2023-04-18T08:23:28.991Z,22.0831
2023-04-18T08:24:30.358Z,22.0174
2023-04-18T08:25:31.892Z,22.1927
2023-04-18T08:26:33.338Z,22.2732
2023-04-18T08:27:34.749Z,22.0599
2023-04-18T08:28:36.065Z,21.6902
2023-04-18T08:29:37.549Z,21.5085
2023-04-18T08:30:38.908Z,21.6682
2023-04-18T08:31:40.429Z,21.8315
2023-04-18T08:32:41.843Z,21.7755
2023-04-18T08:33:43.194Z,21.4724
2023-04-18T08:34:44.579Z,21.2570
2023-04-18T08:35:46.050Z,21.2239
2023-04-18T08:36:47.494Z,21.3448
2023-04-18T08:37:49.010Z,21.4783
2023-04-18T08:38:50.192Z,21.4165
2023-04-18T08:39:51.764Z,21.1509
2023-04-18T08:40:53.130Z,21.0581
2023-04-18T08:41:54.632Z,21.0612
2023-04-18T08:42:56.000Z,21.1994
2023-04-18T08:43:57.393Z,21.3257
2023-04-18T08:44:58.743Z,21.1800
2023-04-18T08:46:00.305Z,20.8697
2023-04-18T08:47:01.837Z,20.6790
2023-04-18T08:48:03.204Z,20.7322
2023-04-18T08:49:04.540Z,21.0177
2023-04-18T08:50:06.061Z,21.2304
2023-04-18T08:51:07.334Z,21.1273
2023-04-18T08:52:08.770Z,20.9619
2023-04-18T08:53:10.284Z,20.8836
2023-04-18T08:54:11.653Z,20.9894
2023-04-18T08:55:13.041Z,21.2376
2023-04-18T08:56:14.427Z,21.3212
2023-04-18T08:57:15.904Z,21.1417
2023-04-18T08:58:17.295Z,20.8934
2023-04-18T08:59:18.691Z,20.7871
2023-04-18T09:00:20.132Z,20.8748
2023-04-18T09:01:21.608Z,21.0845
2023-04-18T09:02:23.138Z,21.1348
2023-04-18T09:03:24.484Z,20.8923
2023-04-18T09:04:25.870Z,20.7015
2023-04-18T09:05:27.374Z,20.6699
2023-04-18T09:06:28.684Z,20.8097
2023-04-18T09:07:30.122Z,21.0659
2023-04-18T09:08:31.533Z,21.0657
2023-04-18T09:09:32.956Z,20.8133
2023-04-18T09:10:34.393Z,20.6969
2023-04-18T09:11:35.802Z,20.6980
2023-04-18T09:12:37.285Z,20.9103
2023-04-18T09:13:38.776Z,21.1195
2023-04-18T09:14:40.073Z,21.0517
2023-04-18T09:15:42.325Z,20.8427
2023-04-18T09:16:42.918Z,20.7789
2023-04-18T09:17:44.337Z,20.8165
2023-04-18T09:18:45.772Z,21.0659
2023-04-18T09:19:47.453Z,21.3584
2023-04-18T09:20:48.543Z,21.3604
2023-04-18T09:21:50.038Z,21.1404
2023-04-18T09:22:51.411Z,21.0657
2023-04-18T09:23:52.944Z,21.1382
2023-04-18T09:24:54.322Z,21.3437
2023-04-18T09:25:55.723Z,21.4699
2023-04-18T09:26:57.125Z,21.2961
2023-04-18T09:27:58.551Z,20.9216
2023-04-18T09:28:59.998Z,20.6743
2023-04-18T09:30:01.471Z,20.6239
2023-04-18T09:31:02.891Z,20.7415
2023-04-18T09:32:04.227Z,20.9584
2023-04-18T09:33:05.790Z,20.9596
2023-04-18T09:34:07.149Z,20.7003
2023-04-18T09:35:08.557Z,20.5602
2023-04-18T09:36:10.057Z,20.5282
2023-04-18T09:37:11.559Z,20.7031
2023-04-18T09:38:12.900Z,20.9981
2023-04-18T09:39:14.455Z,21.0880
2023-04-18T09:40:15.878Z,20.9570
2023-04-18T09:41:19.898Z,20.7796
2023-04-18T09:42:18.578Z,20.7802
2023-04-18T09:43:20.042Z,20.9777
2023-04-18T09:44:21.477Z,21.2292
2023-04-18T09:45:22.873Z,21.2736
2023-04-18T09:46:24.265Z,21.0845
2023-04-18T09:47:25.797Z,20.9716
2023-04-18T09:48:27.214Z,20.9735
2023-04-18T09:49:28.607Z,21.1716
2023-04-18T09:50:30.031Z,21.3678
2023-04-18T09:51:31.344Z,21.3070
2023-04-18T09:52:32.752Z,21.0556
2023-04-18T09:53:34.226Z,20.8792
2023-04-18T09:54:35.713Z,20.8235
2023-04-18T09:55:37.135Z,20.9904
2023-04-18T09:56:38.574Z,21.1831
2023-04-18T09:57:40.021Z,21.1548
2023-04-18T09:58:41.318Z,21.0069
2023-04-18T09:59:42.793Z,20.9525
2023-04-18T10:00:46.363Z,21.1099
2023-04-18T10:01:45.626Z,21.4290
2023-04-18T10:02:47.120Z,21.6045
2023-04-18T10:03:48.665Z,21.4810
2023-04-18T10:04:49.951Z,21.2578
2023-04-18T10:05:51.424Z,21.2105
2023-04-18T10:06:53.446Z,21.2687
2023-04-18T10:07:54.085Z,21.5616
2023-04-18T10:08:55.587Z,21.7273
2023-04-18T10:09:57.004Z,21.5335
2023-04-18T10:10:58.417Z,21.2773
2023-04-18T10:11:59.803Z,21.1431
2023-04-18T10:13:01.226Z,21.2153
2023-04-18T10:14:02.596Z,21.4415
2023-04-18T10:15:04.136Z,21.4814
2023-04-18T10:16:05.989Z,21.2323
2023-04-18T10:17:06.963Z,20.9246
2023-04-18T10:18:08.339Z,21.0022
2023-04-18T10:19:09.892Z,21.3693
2023-04-18T10:20:11.209Z,21.6818
2023-04-18T10:21:12.597Z,21.6254
2023-04-18T10:22:14.043Z,21.2836
2023-04-18T10:23:15.425Z,21.0160
2023-04-18T10:24:16.803Z,20.9985
2023-04-18T10:25:18.337Z,21.2043
2023-04-18T10:26:19.734Z,21.5549
2023-04-18T10:27:21.099Z,21.6459
2023-04-18T10:28:23.408Z,21.4778
2023-04-18T10:29:23.964Z,21.3311
2023-04-18T10:30:25.465Z,21.3209
2023-04-18T10:31:27.160Z,21.4710
2023-04-18T10:32:28.317Z,21.7510
2023-04-18T10:33:31.921Z,21.7349
2023-04-18T10:34:31.057Z,21.4634
2023-04-18T10:35:32.565Z,21.3038
2023-04-18T10:36:33.950Z,21.3682
2023-04-18T10:37:35.336Z,21.7431
2023-04-18T10:38:36.714Z,22.0435
2023-04-18T10:39:38.177Z,22.0420
2023-04-18T10:40:39.559Z,21.9703
2023-04-18T10:41:41.042Z,21.8628
2023-04-18T10:42:42.394Z,21.8978
2023-04-18T10:43:45.471Z,22.0121
2023-04-18T10:55:55.265Z,22.0781
2023-04-18T10:55:55.265Z,21.7967
2023-04-18T10:56:57.614Z,21.3640
2023-04-18T10:57:58.877Z,21.2241
2023-04-18T10:59:00.411Z,21.0430
2023-04-18T11:00:01.965Z,20.9804
2023-04-18T11:01:03.334Z,21.0543
2023-04-18T11:02:04.771Z,21.2762
2023-04-18T11:03:06.245Z,21.4294
2023-04-18T11:04:07.749Z,21.4026
2023-04-18T11:05:08.970Z,21.2480
2023-04-18T11:06:10.380Z,21.2612
2023-04-18T11:07:11.716Z,21.4423
2023-04-18T11:08:13.195Z,21.7220
2023-04-18T11:09:14.788Z,21.7969
2023-04-18T11:10:16.122Z,21.6547
2023-04-18T11:11:17.567Z,21.4240
2023-04-18T11:12:18.863Z,21.3455
2023-04-18T11:13:20.325Z,21.4175
2023-04-18T11:14:21.758Z,21.6216
2023-04-18T11:15:23.161Z,21.7164
2023-04-18T11:16:24.610Z,21.4956
2023-04-18T11:17:26.164Z,21.2351
2023-04-18T11:18:27.493Z,21.1492
2023-04-18T11:19:28.858Z,21.3358
2023-04-18T11:20:30.309Z,21.6790
2023-04-18T11:21:31.698Z,21.9060
2023-04-18T11:22:33.202Z,21.7868
2023-04-18T11:23:34.604Z,21.4536
2023-04-18T11:24:35.981Z,21.3398
2023-04-18T11:25:37.340Z,21.4195
2023-04-18T11:26:38.817Z,21.6397
2023-04-18T11:27:40.241Z,21.8384
2023-04-18T11:28:41.684Z,21.7361
2023-04-18T11:29:43.113Z,21.3904
2023-04-18T11:30:44.496Z,21.2555
2023-04-18T11:31:46.001Z,21.2760
2023-04-18T11:32:47.482Z,21.4950
2023-04-18T11:33:48.831Z,21.7600
2023-04-18T11:34:50.186Z,21.7539
2023-04-18T11:35:51.635Z,21.4562
2023-04-18T11:36:53.155Z,21.3323
2023-04-18T11:37:54.504Z,21.3679
2023-04-18T11:38:55.973Z,21.5388
2023-04-18T11:39:57.236Z,21.7977
2023-04-18T11:40:58.729Z,21.8346
2023-04-18T11:42:00.201Z,21.6517
2023-04-18T11:43:01.604Z,21.5006
2023-04-18T11:44:03.076Z,21.5989
2023-04-18T11:45:04.425Z,21.8016
2023-04-18T11:46:05.867Z,21.9770
2023-04-18T11:47:07.194Z,21.8570
2023-04-18T11:48:08.861Z,21.5371
2023-04-18T11:49:10.304Z,21.4081
2023-04-18T11:50:11.576Z,21.4652
2023-04-18T11:51:12.998Z,21.7078
2023-04-18T11:52:14.417Z,21.8701
2023-04-18T11:53:15.718Z,21.7389
2023-04-18T11:54:17.293Z,21.4862
2023-04-18T11:55:18.676Z,21.4236
2023-04-18T11:56:20.128Z,21.5172
2023-04-18T11:57:21.567Z,21.8060
2023-04-18T11:58:22.967Z,21.8704
2023-04-18T11:59:24.485Z,21.7284
2023-04-18T12:00:25.735Z,21.5539
2023-04-18T12:01:27.111Z,21.5837
2023-04-18T12:02:28.798Z,21.7107
2023-04-18T12:03:30.319Z,21.9061
2023-04-18T12:04:31.723Z,21.8833
2023-04-18T12:05:33.044Z,21.6357
2023-04-18T12:06:34.345Z,21.4010
2023-04-18T12:07:35.731Z,21.4202
2023-04-18T12:08:37.077Z,21.6435
2023-04-18T12:09:38.701Z,21.8729
2023-04-18T12:10:40.069Z,21.8365
2023-04-18T12:11:41.469Z,21.5936
2023-04-18T12:12:42.989Z,21.4909
2023-04-18T12:13:44.256Z,21.5412
2023-04-18T12:14:45.732Z,21.7332
2023-04-18T12:15:47.219Z,21.8570
2023-04-18T12:16:48.543Z,21.7651
2023-04-18T12:17:50.006Z,21.4787
2023-04-18T12:18:51.354Z,21.3702
2023-04-18T12:19:52.919Z,21.4060
2023-04-18T12:20:54.372Z,21.6447
2023-04-18T12:21:55.671Z,21.7927
2023-04-18T12:22:57.161Z,21.7552
2023-04-18T12:23:58.569Z,21.4690
2023-04-18T12:24:59.964Z,21.3252
2023-04-18T12:26:01.449Z,21.4667
2023-04-18T12:27:02.820Z,21.7438
2023-04-18T12:28:04.398Z,21.8002
2023-04-18T12:29:05.711Z,21.6645
2023-04-18T12:30:07.206Z,21.4764
2023-04-18T12:31:08.600Z,21.4996
2023-04-18T12:32:09.855Z,21.6697
2023-04-18T12:33:11.326Z,21.9239